sensor_id;sensor_type;location;lat;lon;timestamp;temperature;humidity
18229;DHT22;9239;50.932;3.142;2022-09-17T00:01:23;11.00;99.90
18229;DHT22;9239;50.932;3.142;2022-09-17T00:03:53;11.00;99.90
18229;DHT22;9239;50.932;3.142;2022-09-17T00:06:21;11.00;99.90
18229;DHT22;9239;50.932;3.142;2022-09-17T00:08:48;11.00;99.90
18229;DHT22;9239;50.932;3.142;2022-09-17T00:11:18;10.90;99.90
18229;DHT22;9239;50.932;3.142;2022-09-17T00:13:47;10.90;99.90
18229;DHT22;9239;50.932;3.142;2022-09-17T00:16:25;10.90;99.90
18229;DHT22;9239;50.932;3.142;2022-09-17T00:18:53;10.80;99.90
18229;DHT22;9239;50.932;3.142;2022-09-17T00:21:20;10.80;99.90
18229;DHT22;9239;50.932;3.142;2022-09-17T00:23:47;10.90;99.90
18229;DHT22;9239;50.932;3.142;2022-09-17T00:26:14;10.90;99.90
18229;DHT22;9239;50.932;3.142;2022-09-17T00:28:41;10.90;99.90
18229;DHT22;9239;50.932;3.142;2022-09-17T00:31:12;10.90;99.90
18229;DHT22;9239;50.932;3.142;2022-09-17T00:33:41;10.90;99.90
18229;DHT22;9239;50.932;3.142;2022-09-17T00:36:08;10.90;99.90
18229;DHT22;9239;50.932;3.142;2022-09-17T00:38:35;10.90;99.90
18229;DHT22;9239;50.932;3.142;2022-09-17T00:41:03;10.90;99.90
18229;DHT22;9239;50.932;3.142;2022-09-17T00:43:41;10.90;99.90
18229;DHT22;9239;50.932;3.142;2022-09-17T00:46:23;10.90;99.90
18229;DHT22;9239;50.932;3.142;2022-09-17T00:48:53;10.90;99.90
18229;DHT22;9239;50.932;3.142;2022-09-17T00:51:26;10.90;99.90
18229;DHT22;9239;50.932;3.142;2022-09-17T00:53:55;10.90;99.90
18229;DHT22;9239;50.932;3.142;2022-09-17T00:56:25;10.90;99.90
18229;DHT22;9239;50.932;3.142;2022-09-17T00:58:54;10.90;99.90
18229;DHT22;9239;50.932;3.142;2022-09-17T01:01:21;10.90;99.90
18229;DHT22;9239;50.932;3.142;2022-09-17T01:03:48;11.00;99.90
18229;DHT22;9239;50.932;3.142;2022-09-17T01:06:22;11.00;99.90
18229;DHT22;9239;50.932;3.142;2022-09-17T01:09:06;11.10;99.90
18229;DHT22;9239;50.932;3.142;2022-09-17T01:11:48;11.10;99.90
18229;DHT22;9239;50.932;3.142;2022-09-17T01:14:31;11.20;99.90
18229;DHT22;9239;50.932;3.142;2022-09-17T01:17:04;11.20;99.90
18229;DHT22;9239;50.932;3.142;2022-09-17T01:19:59;11.20;99.90
18229;DHT22;9239;50.932;3.142;2022-09-17T01:22:39;11.30;99.90
18229;DHT22;9239;50.932;3.142;2022-09-17T01:25:20;11.30;99.90
18229;DHT22;9239;50.932;3.142;2022-09-17T01:28:20;11.30;99.90
18229;DHT22;9239;50.932;3.142;2022-09-17T01:31:11;11.30;99.90
18229;DHT22;9239;50.932;3.142;2022-09-17T01:33:47;11.30;99.90
18229;DHT22;9239;50.932;3.142;2022-09-17T01:36:25;11.30;99.90
18229;DHT22;9239;50.932;3.142;2022-09-17T01:39:00;11.30;99.90
18229;DHT22;9239;50.932;3.142;2022-09-17T01:41:31;11.30;99.90
18229;DHT22;9239;50.932;3.142;2022-09-17T01:44:05;11.20;99.90
18229;DHT22;9239;50.932;3.142;2022-09-17T01:46:38;11.10;99.90
18229;DHT22;9239;50.932;3.142;2022-09-17T01:49:06;11.00;99.90
18229;DHT22;9239;50.932;3.142;2022-09-17T01:51:36;10.90;99.90
18229;DHT22;9239;50.932;3.142;2022-09-17T01:54:09;10.90;99.90
18229;DHT22;9239;50.932;3.142;2022-09-17T01:56:42;10.90;99.90
18229;DHT22;9239;50.932;3.142;2022-09-17T01:59:17;10.90;99.90
18229;DHT22;9239;50.932;3.142;2022-09-17T02:01:49;10.90;99.90
18229;DHT22;9239;50.932;3.142;2022-09-17T02:04:21;11.00;99.90
18229;DHT22;9239;50.932;3.142;2022-09-17T02:06:53;11.10;99.90
18229;DHT22;9239;50.932;3.142;2022-09-17T02:09:23;11.10;99.90
18229;DHT22;9239;50.932;3.142;2022-09-17T02:11:55;11.30;99.90
18229;DHT22;9239;50.932;3.142;2022-09-17T02:14:26;11.30;99.90
18229;DHT22;9239;50.932;3.142;2022-09-17T02:16:59;11.30;99.90
18229;DHT22;9239;50.932;3.142;2022-09-17T02:19:30;11.30;99.90
18229;DHT22;9239;50.932;3.142;2022-09-17T02:22:00;11.30;99.90
18229;DHT22;9239;50.932;3.142;2022-09-17T02:24:32;11.40;99.90
18229;DHT22;9239;50.932;3.142;2022-09-17T02:27:06;11.40;99.90
18229;DHT22;9239;50.932;3.142;2022-09-17T02:29:36;11.40;99.90
18229;DHT22;9239;50.932;3.142;2022-09-17T02:32:05;11.40;99.90
18229;DHT22;9239;50.932;3.142;2022-09-17T02:34:32;11.50;99.90
18229;DHT22;9239;50.932;3.142;2022-09-17T02:36:59;11.50;99.90
18229;DHT22;9239;50.932;3.142;2022-09-17T02:39:28;11.60;99.90
18229;DHT22;9239;50.932;3.142;2022-09-17T02:42:02;11.60;99.90
18229;DHT22;9239;50.932;3.142;2022-09-17T02:44:36;11.60;99.90
18229;DHT22;9239;50.932;3.142;2022-09-17T02:47:33;11.60;99.90
18229;DHT22;9239;50.932;3.142;2022-09-17T02:50:17;11.60;99.90
18229;DHT22;9239;50.932;3.142;2022-09-17T02:52:59;11.60;99.90
18229;DHT22;9239;50.932;3.142;2022-09-17T02:55:35;11.60;99.90
18229;DHT22;9239;50.932;3.142;2022-09-17T02:58:15;11.60;99.90
18229;DHT22;9239;50.932;3.142;2022-09-17T03:00:45;11.60;99.90
18229;DHT22;9239;50.932;3.142;2022-09-17T03:03:19;11.60;99.90
18229;DHT22;9239;50.932;3.142;2022-09-17T03:05:47;11.60;99.90
18229;DHT22;9239;50.932;3.142;2022-09-17T03:08:15;11.60;99.90
18229;DHT22;9239;50.932;3.142;2022-09-17T03:10:45;11.60;99.90
18229;DHT22;9239;50.932;3.142;2022-09-17T03:13:13;11.60;99.90
18229;DHT22;9239;50.932;3.142;2022-09-17T03:15:40;11.70;99.90
18229;DHT22;9239;50.932;3.142;2022-09-17T03:18:07;11.70;99.90
18229;DHT22;9239;50.932;3.142;2022-09-17T03:20:35;11.70;99.90
18229;DHT22;9239;50.932;3.142;2022-09-17T03:23:02;11.80;99.90
18229;DHT22;9239;50.932;3.142;2022-09-17T03:25:29;11.80;99.90
18229;DHT22;9239;50.932;3.142;2022-09-17T03:27:56;11.70;99.90
18229;DHT22;9239;50.932;3.142;2022-09-17T03:30:23;11.70;99.90
18229;DHT22;9239;50.932;3.142;2022-09-17T03:32:50;11.70;99.90
18229;DHT22;9239;50.932;3.142;2022-09-17T03:35:17;11.70;99.90
18229;DHT22;9239;50.932;3.142;2022-09-17T03:37:45;11.70;99.90
18229;DHT22;9239;50.932;3.142;2022-09-17T03:40:12;11.80;99.90
18229;DHT22;9239;50.932;3.142;2022-09-17T03:42:39;11.80;99.90
18229;DHT22;9239;50.932;3.142;2022-09-17T03:45:07;11.90;99.90
18229;DHT22;9239;50.932;3.142;2022-09-17T03:47:34;12.00;99.90
18229;DHT22;9239;50.932;3.142;2022-09-17T03:50:01;12.00;99.90
18229;DHT22;9239;50.932;3.142;2022-09-17T03:52:27;12.10;99.90
18229;DHT22;9239;50.932;3.142;2022-09-17T03:54:56;12.10;99.90
18229;DHT22;9239;50.932;3.142;2022-09-17T03:57:22;12.10;99.90
18229;DHT22;9239;50.932;3.142;2022-09-17T03:59:49;12.10;99.90
18229;DHT22;9239;50.932;3.142;2022-09-17T04:02:16;12.10;99.90
18229;DHT22;9239;50.932;3.142;2022-09-17T04:04:43;12.10;99.90
18229;DHT22;9239;50.932;3.142;2022-09-17T04:07:10;12.10;99.90
18229;DHT22;9239;50.932;3.142;2022-09-17T04:09:37;12.10;99.90
18229;DHT22;9239;50.932;3.142;2022-09-17T04:12:05;12.00;99.90
18229;DHT22;9239;50.932;3.142;2022-09-17T04:14:32;11.90;99.90
18229;DHT22;9239;50.932;3.142;2022-09-17T04:16:59;11.70;99.90
18229;DHT22;9239;50.932;3.142;2022-09-17T04:19:26;11.60;99.90
18229;DHT22;9239;50.932;3.142;2022-09-17T04:21:53;11.50;99.90
18229;DHT22;9239;50.932;3.142;2022-09-17T04:24:20;11.40;99.90
18229;DHT22;9239;50.932;3.142;2022-09-17T04:26:47;11.40;99.90
18229;DHT22;9239;50.932;3.142;2022-09-17T04:29:15;11.40;99.90
18229;DHT22;9239;50.932;3.142;2022-09-17T04:31:42;11.40;99.90
18229;DHT22;9239;50.932;3.142;2022-09-17T04:34:09;11.40;99.90
18229;DHT22;9239;50.932;3.142;2022-09-17T04:36:36;11.40;99.90
18229;DHT22;9239;50.932;3.142;2022-09-17T04:39:02;11.30;99.90
18229;DHT22;9239;50.932;3.142;2022-09-17T04:41:29;11.20;99.90
18229;DHT22;9239;50.932;3.142;2022-09-17T04:43:56;11.10;99.90
18229;DHT22;9239;50.932;3.142;2022-09-17T04:46:24;11.00;99.90
18229;DHT22;9239;50.932;3.142;2022-09-17T04:48:51;10.90;99.90
18229;DHT22;9239;50.932;3.142;2022-09-17T04:51:18;10.90;99.90
18229;DHT22;9239;50.932;3.142;2022-09-17T04:53:45;10.90;99.90
18229;DHT22;9239;50.932;3.142;2022-09-17T04:56:12;11.00;99.90
18229;DHT22;9239;50.932;3.142;2022-09-17T04:58:38;11.00;99.90
18229;DHT22;9239;50.932;3.142;2022-09-17T05:01:05;11.00;99.90
18229;DHT22;9239;50.932;3.142;2022-09-17T05:03:34;11.00;99.90
18229;DHT22;9239;50.932;3.142;2022-09-17T05:06:00;11.10;99.90
18229;DHT22;9239;50.932;3.142;2022-09-17T05:08:27;11.20;99.90
18229;DHT22;9239;50.932;3.142;2022-09-17T05:10:54;11.20;99.90
18229;DHT22;9239;50.932;3.142;2022-09-17T05:13:21;11.20;99.90
18229;DHT22;9239;50.932;3.142;2022-09-17T05:15:48;11.20;99.90
18229;DHT22;9239;50.932;3.142;2022-09-17T05:18:15;11.20;99.90
18229;DHT22;9239;50.932;3.142;2022-09-17T05:20:43;11.20;99.90
18229;DHT22;9239;50.932;3.142;2022-09-17T05:23:10;11.20;99.90
18229;DHT22;9239;50.932;3.142;2022-09-17T05:25:36;11.20;99.90
18229;DHT22;9239;50.932;3.142;2022-09-17T05:28:03;11.20;99.90
18229;DHT22;9239;50.932;3.142;2022-09-17T05:30:31;11.20;99.90
18229;DHT22;9239;50.932;3.142;2022-09-17T05:32:59;11.20;99.90
18229;DHT22;9239;50.932;3.142;2022-09-17T05:35:26;11.20;99.90
18229;DHT22;9239;50.932;3.142;2022-09-17T05:37:57;11.20;99.90
18229;DHT22;9239;50.932;3.142;2022-09-17T05:40:25;11.20;99.90
18229;DHT22;9239;50.932;3.142;2022-09-17T05:42:56;11.10;99.90
18229;DHT22;9239;50.932;3.142;2022-09-17T05:45:23;11.20;99.90
18229;DHT22;9239;50.932;3.142;2022-09-17T05:47:54;11.30;99.90
18229;DHT22;9239;50.932;3.142;2022-09-17T05:50:21;11.40;99.90
18229;DHT22;9239;50.932;3.142;2022-09-17T05:52:48;11.40;99.90
18229;DHT22;9239;50.932;3.142;2022-09-17T05:55:16;11.50;99.90
18229;DHT22;9239;50.932;3.142;2022-09-17T05:57:43;11.50;99.90
18229;DHT22;9239;50.932;3.142;2022-09-17T06:00:11;11.50;99.90
18229;DHT22;9239;50.932;3.142;2022-09-17T06:02:38;11.50;99.90
18229;DHT22;9239;50.932;3.142;2022-09-17T06:05:05;11.60;99.90
18229;DHT22;9239;50.932;3.142;2022-09-17T06:07:34;11.60;99.90
18229;DHT22;9239;50.932;3.142;2022-09-17T06:10:01;11.70;99.90
18229;DHT22;9239;50.932;3.142;2022-09-17T06:12:29;11.70;99.90
18229;DHT22;9239;50.932;3.142;2022-09-17T06:14:56;11.70;99.90
18229;DHT22;9239;50.932;3.142;2022-09-17T06:17:23;11.80;99.90
18229;DHT22;9239;50.932;3.142;2022-09-17T06:19:50;11.80;99.90
18229;DHT22;9239;50.932;3.142;2022-09-17T06:22:17;11.80;99.90
18229;DHT22;9239;50.932;3.142;2022-09-17T06:24:45;11.90;99.90
18229;DHT22;9239;50.932;3.142;2022-09-17T06:27:12;11.80;99.90
18229;DHT22;9239;50.932;3.142;2022-09-17T06:29:40;11.80;99.90
18229;DHT22;9239;50.932;3.142;2022-09-17T06:32:08;11.80;99.90
18229;DHT22;9239;50.932;3.142;2022-09-17T06:34:36;11.80;99.90
18229;DHT22;9239;50.932;3.142;2022-09-17T06:37:03;11.80;99.90
18229;DHT22;9239;50.932;3.142;2022-09-17T06:39:29;11.90;99.90
18229;DHT22;9239;50.932;3.142;2022-09-17T06:41:56;11.90;99.90
18229;DHT22;9239;50.932;3.142;2022-09-17T06:44:23;11.90;99.90
18229;DHT22;9239;50.932;3.142;2022-09-17T06:46:51;11.90;99.90
18229;DHT22;9239;50.932;3.142;2022-09-17T06:49:18;11.90;99.90
18229;DHT22;9239;50.932;3.142;2022-09-17T06:51:45;12.00;99.90
18229;DHT22;9239;50.932;3.142;2022-09-17T06:54:12;12.00;99.90
18229;DHT22;9239;50.932;3.142;2022-09-17T06:56:39;12.00;99.90
18229;DHT22;9239;50.932;3.142;2022-09-17T06:59:05;12.00;99.90
18229;DHT22;9239;50.932;3.142;2022-09-17T07:01:32;12.00;99.90
18229;DHT22;9239;50.932;3.142;2022-09-17T07:04:01;12.00;99.90
18229;DHT22;9239;50.932;3.142;2022-09-17T07:06:28;12.10;99.90
18229;DHT22;9239;50.932;3.142;2022-09-17T07:08:54;12.20;99.90
18229;DHT22;9239;50.932;3.142;2022-09-17T07:11:21;12.30;99.90
18229;DHT22;9239;50.932;3.142;2022-09-17T07:13:48;12.40;99.90
18229;DHT22;9239;50.932;3.142;2022-09-17T07:16:15;12.50;99.90
18229;DHT22;9239;50.932;3.142;2022-09-17T07:18:42;12.60;99.90
18229;DHT22;9239;50.932;3.142;2022-09-17T07:21:10;12.70;99.90
18229;DHT22;9239;50.932;3.142;2022-09-17T07:23:37;12.90;99.90
18229;DHT22;9239;50.932;3.142;2022-09-17T07:26:05;13.10;99.90
18229;DHT22;9239;50.932;3.142;2022-09-17T07:28:32;13.20;99.90
18229;DHT22;9239;50.932;3.142;2022-09-17T07:31:02;13.20;99.90
18229;DHT22;9239;50.932;3.142;2022-09-17T07:33:30;13.30;99.90
18229;DHT22;9239;50.932;3.142;2022-09-17T07:35:59;13.40;99.90
18229;DHT22;9239;50.932;3.142;2022-09-17T07:38:28;13.40;99.90
18229;DHT22;9239;50.932;3.142;2022-09-17T07:40:57;13.50;99.90
18229;DHT22;9239;50.932;3.142;2022-09-17T07:43:24;13.50;99.90
18229;DHT22;9239;50.932;3.142;2022-09-17T07:45:52;13.50;99.90
18229;DHT22;9239;50.932;3.142;2022-09-17T07:48:19;13.60;99.90
18229;DHT22;9239;50.932;3.142;2022-09-17T07:50:46;13.60;99.90
18229;DHT22;9239;50.932;3.142;2022-09-17T07:53:13;13.70;99.90
18229;DHT22;9239;50.932;3.142;2022-09-17T07:55:41;13.80;99.90
18229;DHT22;9239;50.932;3.142;2022-09-17T07:58:08;13.90;99.90
18229;DHT22;9239;50.932;3.142;2022-09-17T08:00:35;13.90;99.90
18229;DHT22;9239;50.932;3.142;2022-09-17T08:03:02;13.70;99.90
18229;DHT22;9239;50.932;3.142;2022-09-17T08:05:32;13.70;99.90
18229;DHT22;9239;50.932;3.142;2022-09-17T08:07:59;13.70;99.90
18229;DHT22;9239;50.932;3.142;2022-09-17T08:10:26;13.80;99.90
18229;DHT22;9239;50.932;3.142;2022-09-17T08:12:56;14.00;99.90
18229;DHT22;9239;50.932;3.142;2022-09-17T08:15:24;14.10;99.90
18229;DHT22;9239;50.932;3.142;2022-09-17T08:17:52;14.10;99.90
18229;DHT22;9239;50.932;3.142;2022-09-17T08:20:19;14.30;99.90
18229;DHT22;9239;50.932;3.142;2022-09-17T08:22:46;14.40;99.90
18229;DHT22;9239;50.932;3.142;2022-09-17T08:25:13;14.40;99.90
18229;DHT22;9239;50.932;3.142;2022-09-17T08:27:40;14.50;99.90
18229;DHT22;9239;50.932;3.142;2022-09-17T08:30:09;14.40;99.90
18229;DHT22;9239;50.932;3.142;2022-09-17T08:32:35;14.50;99.90
18229;DHT22;9239;50.932;3.142;2022-09-17T08:35:03;14.50;99.90
18229;DHT22;9239;50.932;3.142;2022-09-17T08:37:29;14.50;99.90
18229;DHT22;9239;50.932;3.142;2022-09-17T08:39:56;14.20;99.90
18229;DHT22;9239;50.932;3.142;2022-09-17T08:42:29;13.90;99.90
18229;DHT22;9239;50.932;3.142;2022-09-17T08:44:58;13.80;99.90
18229;DHT22;9239;50.932;3.142;2022-09-17T08:47:28;13.90;99.90
18229;DHT22;9239;50.932;3.142;2022-09-17T08:49:57;14.00;99.90
18229;DHT22;9239;50.932;3.142;2022-09-17T08:52:52;14.20;99.90
18229;DHT22;9239;50.932;3.142;2022-09-17T08:55:31;14.10;99.90
18229;DHT22;9239;50.932;3.142;2022-09-17T08:58:26;14.00;99.90
18229;DHT22;9239;50.932;3.142;2022-09-17T09:00:59;13.60;99.90
18229;DHT22;9239;50.932;3.142;2022-09-17T09:03:42;13.20;99.90
18229;DHT22;9239;50.932;3.142;2022-09-17T09:06:12;13.00;99.90
18229;DHT22;9239;50.932;3.142;2022-09-17T09:08:42;12.90;99.90
18229;DHT22;9239;50.932;3.142;2022-09-17T09:11:13;12.90;99.90
18229;DHT22;9239;50.932;3.142;2022-09-17T09:13:44;13.00;99.90
18229;DHT22;9239;50.932;3.142;2022-09-17T09:16:16;13.00;99.90
18229;DHT22;9239;50.932;3.142;2022-09-17T09:18:46;13.10;99.90
18229;DHT22;9239;50.932;3.142;2022-09-17T09:21:24;13.10;99.90
18229;DHT22;9239;50.932;3.142;2022-09-17T09:23:54;13.20;99.90
18229;DHT22;9239;50.932;3.142;2022-09-17T09:26:33;13.40;99.90
18229;DHT22;9239;50.932;3.142;2022-09-17T09:29:06;13.60;99.90
18229;DHT22;9239;50.932;3.142;2022-09-17T09:31:50;13.80;99.90
18229;DHT22;9239;50.932;3.142;2022-09-17T09:34:24;14.10;99.90
18229;DHT22;9239;50.932;3.142;2022-09-17T09:39:26;14.40;99.90
18229;DHT22;9239;50.932;3.142;2022-09-17T09:42:04;14.40;99.90
18229;DHT22;9239;50.932;3.142;2022-09-17T09:44:32;14.60;99.90
18229;DHT22;9239;50.932;3.142;2022-09-17T09:47:13;14.60;99.90
18229;DHT22;9239;50.932;3.142;2022-09-17T09:49:56;14.40;99.90
18229;DHT22;9239;50.932;3.142;2022-09-17T09:52:37;14.10;99.90
18229;DHT22;9239;50.932;3.142;2022-09-17T09:55:22;14.10;99.90
18229;DHT22;9239;50.932;3.142;2022-09-17T09:57:54;14.10;99.90
18229;DHT22;9239;50.932;3.142;2022-09-17T10:00:28;14.10;99.90
18229;DHT22;9239;50.932;3.142;2022-09-17T10:03:00;14.20;99.90
18229;DHT22;9239;50.932;3.142;2022-09-17T10:05:30;14.20;99.90
18229;DHT22;9239;50.932;3.142;2022-09-17T10:07:57;14.20;99.90
18229;DHT22;9239;50.932;3.142;2022-09-17T10:10:24;14.20;99.90
18229;DHT22;9239;50.932;3.142;2022-09-17T10:13:05;14.10;99.90
18229;DHT22;9239;50.932;3.142;2022-09-17T10:15:32;14.10;99.90
18229;DHT22;9239;50.932;3.142;2022-09-17T10:18:14;14.10;99.90
18229;DHT22;9239;50.932;3.142;2022-09-17T10:20:54;14.10;99.90
18229;DHT22;9239;50.932;3.142;2022-09-17T10:23:22;14.10;99.90
18229;DHT22;9239;50.932;3.142;2022-09-17T10:25:50;14.20;99.90
18229;DHT22;9239;50.932;3.142;2022-09-17T10:28:44;14.40;99.90
18229;DHT22;9239;50.932;3.142;2022-09-17T10:31:12;14.50;99.90
18229;DHT22;9239;50.932;3.142;2022-09-17T10:33:50;14.50;99.90
18229;DHT22;9239;50.932;3.142;2022-09-17T10:36:35;14.50;99.90
18229;DHT22;9239;50.932;3.142;2022-09-17T10:39:18;14.50;99.90
18229;DHT22;9239;50.932;3.142;2022-09-17T10:41:53;14.50;99.90
18229;DHT22;9239;50.932;3.142;2022-09-17T10:44:22;14.50;99.90
18229;DHT22;9239;50.932;3.142;2022-09-17T10:46:50;14.60;99.90
18229;DHT22;9239;50.932;3.142;2022-09-17T10:49:28;14.70;99.90
18229;DHT22;9239;50.932;3.142;2022-09-17T10:52:09;14.60;99.90
18229;DHT22;9239;50.932;3.142;2022-09-17T10:54:58;14.60;99.90
18229;DHT22;9239;50.932;3.142;2022-09-17T10:57:49;14.60;99.90
18229;DHT22;9239;50.932;3.142;2022-09-17T11:00:20;14.90;99.90
18229;DHT22;9239;50.932;3.142;2022-09-17T11:03:28;15.10;99.90
18229;DHT22;9239;50.932;3.142;2022-09-17T11:06:22;15.00;99.90
18229;DHT22;9239;50.932;3.142;2022-09-17T11:09:01;14.80;99.90
18229;DHT22;9239;50.932;3.142;2022-09-17T11:11:40;14.80;99.90
18229;DHT22;9239;50.932;3.142;2022-09-17T11:14:19;14.90;99.90
18229;DHT22;9239;50.932;3.142;2022-09-17T11:16:57;15.00;99.90
18229;DHT22;9239;50.932;3.142;2022-09-17T11:19:33;15.10;99.90
18229;DHT22;9239;50.932;3.142;2022-09-17T11:22:10;15.20;99.90
18229;DHT22;9239;50.932;3.142;2022-09-17T11:25:02;15.00;99.90
18229;DHT22;9239;50.932;3.142;2022-09-17T11:27:40;15.10;99.90
18229;DHT22;9239;50.932;3.142;2022-09-17T11:30:15;15.40;99.90
18229;DHT22;9239;50.932;3.142;2022-09-17T11:32:59;15.60;99.90
18229;DHT22;9239;50.932;3.142;2022-09-17T11:35:35;15.60;99.90
18229;DHT22;9239;50.932;3.142;2022-09-17T11:38:09;15.60;99.90
18229;DHT22;9239;50.932;3.142;2022-09-17T11:40:42;15.80;99.90
18229;DHT22;9239;50.932;3.142;2022-09-17T11:43:17;15.70;99.90
18229;DHT22;9239;50.932;3.142;2022-09-17T11:45:54;15.70;99.90
18229;DHT22;9239;50.932;3.142;2022-09-17T11:48:26;15.70;99.90
18229;DHT22;9239;50.932;3.142;2022-09-17T11:51:01;15.60;99.90
18229;DHT22;9239;50.932;3.142;2022-09-17T11:53:30;15.60;99.90
18229;DHT22;9239;50.932;3.142;2022-09-17T11:56:01;15.80;99.90
18229;DHT22;9239;50.932;3.142;2022-09-17T11:58:36;15.40;99.90
18229;DHT22;9239;50.932;3.142;2022-09-17T12:01:08;15.40;99.90
18229;DHT22;9239;50.932;3.142;2022-09-17T12:03:40;15.40;99.90
18229;DHT22;9239;50.932;3.142;2022-09-17T12:06:12;15.60;99.90
18229;DHT22;9239;50.932;3.142;2022-09-17T12:08:46;15.80;99.90
18229;DHT22;9239;50.932;3.142;2022-09-17T12:11:20;15.80;99.90
18229;DHT22;9239;50.932;3.142;2022-09-17T12:13:50;15.70;99.90
18229;DHT22;9239;50.932;3.142;2022-09-17T12:16:21;15.70;99.90
18229;DHT22;9239;50.932;3.142;2022-09-17T12:18:55;15.70;99.90
18229;DHT22;9239;50.932;3.142;2022-09-17T12:21:28;15.80;99.90
18229;DHT22;9239;50.932;3.142;2022-09-17T12:24:00;15.80;99.90
18229;DHT22;9239;50.932;3.142;2022-09-17T12:26:40;15.70;99.90
18229;DHT22;9239;50.932;3.142;2022-09-17T12:29:20;15.90;99.90
18229;DHT22;9239;50.932;3.142;2022-09-17T12:31:56;16.00;99.90
18229;DHT22;9239;50.932;3.142;2022-09-17T12:34:34;15.90;99.90
18229;DHT22;9239;50.932;3.142;2022-09-17T12:37:11;15.70;99.90
18229;DHT22;9239;50.932;3.142;2022-09-17T12:39:55;15.50;99.90
18229;DHT22;9239;50.932;3.142;2022-09-17T12:42:56;15.40;99.90
18229;DHT22;9239;50.932;3.142;2022-09-17T12:45:45;15.20;99.90
18229;DHT22;9239;50.932;3.142;2022-09-17T12:48:38;15.10;99.90
18229;DHT22;9239;50.932;3.142;2022-09-17T12:51:18;14.90;99.90
18229;DHT22;9239;50.932;3.142;2022-09-17T12:53:54;14.80;99.90
18229;DHT22;9239;50.932;3.142;2022-09-17T12:56:42;14.80;99.90
18229;DHT22;9239;50.932;3.142;2022-09-17T12:59:15;14.70;99.90
18229;DHT22;9239;50.932;3.142;2022-09-17T13:01:49;14.50;99.90
18229;DHT22;9239;50.932;3.142;2022-09-17T13:04:28;14.40;99.90
18229;DHT22;9239;50.932;3.142;2022-09-17T13:07:16;14.30;99.90
18229;DHT22;9239;50.932;3.142;2022-09-17T13:12:47;14.60;99.90
18229;DHT22;9239;50.932;3.142;2022-09-17T13:15:37;14.80;99.90
18229;DHT22;9239;50.932;3.142;2022-09-17T13:18:14;15.00;99.90
18229;DHT22;9239;50.932;3.142;2022-09-17T13:20:50;15.20;99.90
18229;DHT22;9239;50.932;3.142;2022-09-17T13:23:32;15.10;99.90
18229;DHT22;9239;50.932;3.142;2022-09-17T13:26:00;15.10;99.90
18229;DHT22;9239;50.932;3.142;2022-09-17T13:28:37;14.90;99.90
18229;DHT22;9239;50.932;3.142;2022-09-17T13:31:05;14.80;99.90
18229;DHT22;9239;50.932;3.142;2022-09-17T13:33:50;14.80;99.90
18229;DHT22;9239;50.932;3.142;2022-09-17T13:39:34;14.70;99.90
18229;DHT22;9239;50.932;3.142;2022-09-17T13:42:04;14.70;99.90
18229;DHT22;9239;50.932;3.142;2022-09-17T13:44:35;14.60;99.90
18229;DHT22;9239;50.932;3.142;2022-09-17T13:47:15;14.60;99.90
18229;DHT22;9239;50.932;3.142;2022-09-17T13:49:45;14.70;99.90
18229;DHT22;9239;50.932;3.142;2022-09-17T13:52:14;14.70;99.90
18229;DHT22;9239;50.932;3.142;2022-09-17T13:54:54;14.70;99.90
18229;DHT22;9239;50.932;3.142;2022-09-17T13:57:21;14.80;99.90
18229;DHT22;9239;50.932;3.142;2022-09-17T13:59:54;14.80;99.90
18229;DHT22;9239;50.932;3.142;2022-09-17T14:02:33;14.90;99.90
18229;DHT22;9239;50.932;3.142;2022-09-17T14:05:34;15.00;99.90
18229;DHT22;9239;50.932;3.142;2022-09-17T14:08:23;15.10;99.90
18229;DHT22;9239;50.932;3.142;2022-09-17T14:10:59;15.10;99.90
18229;DHT22;9239;50.932;3.142;2022-09-17T14:13:41;15.20;99.90
18229;DHT22;9239;50.932;3.142;2022-09-17T14:16:32;15.10;99.90
18229;DHT22;9239;50.932;3.142;2022-09-17T14:19:16;14.90;99.90
18229;DHT22;9239;50.932;3.142;2022-09-17T14:21:55;14.80;99.90
18229;DHT22;9239;50.932;3.142;2022-09-17T14:24:26;14.70;99.90
18229;DHT22;9239;50.932;3.142;2022-09-17T14:27:11;14.70;99.90
18229;DHT22;9239;50.932;3.142;2022-09-17T14:32:39;14.70;99.90
18229;DHT22;9239;50.932;3.142;2022-09-17T14:35:18;14.80;99.90
18229;DHT22;9239;50.932;3.142;2022-09-17T14:37:50;14.80;99.90
18229;DHT22;9239;50.932;3.142;2022-09-17T14:40:19;14.90;99.90
18229;DHT22;9239;50.932;3.142;2022-09-17T14:42:49;14.90;99.90
18229;DHT22;9239;50.932;3.142;2022-09-17T14:45:23;14.90;99.90
18229;DHT22;9239;50.932;3.142;2022-09-17T14:50:52;15.00;99.90
18229;DHT22;9239;50.932;3.142;2022-09-17T14:53:36;14.90;99.90
18229;DHT22;9239;50.932;3.142;2022-09-17T14:56:06;14.80;99.90
18229;DHT22;9239;50.932;3.142;2022-09-17T14:58:36;14.60;99.90
18229;DHT22;9239;50.932;3.142;2022-09-17T15:01:04;14.50;99.90
18229;DHT22;9239;50.932;3.142;2022-09-17T15:03:31;14.50;99.90
18229;DHT22;9239;50.932;3.142;2022-09-17T15:06:00;14.50;99.90
18229;DHT22;9239;50.932;3.142;2022-09-17T15:08:27;14.50;99.90
18229;DHT22;9239;50.932;3.142;2022-09-17T15:10:57;14.50;99.90
18229;DHT22;9239;50.932;3.142;2022-09-17T15:13:26;14.40;99.90
18229;DHT22;9239;50.932;3.142;2022-09-17T15:15:58;14.10;99.90
18229;DHT22;9239;50.932;3.142;2022-09-17T15:18:36;13.80;99.90
18229;DHT22;9239;50.932;3.142;2022-09-17T15:21:13;13.70;99.90
18229;DHT22;9239;50.932;3.142;2022-09-17T15:23:42;13.60;99.90
18229;DHT22;9239;50.932;3.142;2022-09-17T15:26:10;13.60;99.90
18229;DHT22;9239;50.932;3.142;2022-09-17T15:28:40;13.60;99.90
18229;DHT22;9239;50.932;3.142;2022-09-17T15:31:13;13.70;99.90
18229;DHT22;9239;50.932;3.142;2022-09-17T15:33:41;13.60;99.90
18229;DHT22;9239;50.932;3.142;2022-09-17T15:36:18;13.30;99.90
18229;DHT22;9239;50.932;3.142;2022-09-17T15:38:45;13.20;99.90
18229;DHT22;9239;50.932;3.142;2022-09-17T15:41:26;13.00;99.90
18229;DHT22;9239;50.932;3.142;2022-09-17T15:43:53;12.90;99.90
18229;DHT22;9239;50.932;3.142;2022-09-17T15:46:23;12.80;99.90
18229;DHT22;9239;50.932;3.142;2022-09-17T15:48:51;12.70;99.90
18229;DHT22;9239;50.932;3.142;2022-09-17T15:51:24;12.70;99.90
18229;DHT22;9239;50.932;3.142;2022-09-17T15:53:53;12.60;99.90
18229;DHT22;9239;50.932;3.142;2022-09-17T15:56:22;12.60;99.90
18229;DHT22;9239;50.932;3.142;2022-09-17T15:58:53;12.50;99.90
18229;DHT22;9239;50.932;3.142;2022-09-17T16:01:49;12.50;99.90
18229;DHT22;9239;50.932;3.142;2022-09-17T16:04:19;12.50;99.90
18229;DHT22;9239;50.932;3.142;2022-09-17T16:06:52;12.60;99.90
18229;DHT22;9239;50.932;3.142;2022-09-17T16:09:43;12.60;99.90
18229;DHT22;9239;50.932;3.142;2022-09-17T16:12:14;12.70;99.90
18229;DHT22;9239;50.932;3.142;2022-09-17T16:14:49;12.70;99.90
18229;DHT22;9239;50.932;3.142;2022-09-17T16:17:41;12.70;99.90
18229;DHT22;9239;50.932;3.142;2022-09-17T16:20:13;12.80;99.90
18229;DHT22;9239;50.932;3.142;2022-09-17T16:22:42;12.80;99.90
18229;DHT22;9239;50.932;3.142;2022-09-17T16:25:09;12.80;99.90
18229;DHT22;9239;50.932;3.142;2022-09-17T16:27:45;12.90;99.90
18229;DHT22;9239;50.932;3.142;2022-09-17T16:30:15;12.90;99.90
18229;DHT22;9239;50.932;3.142;2022-09-17T16:32:43;12.90;99.90